sensor_id;sensor_type;location;lat;lon;timestamp;pressure;altitude;pressure_sealevel;temperature;humidity
49529;BME280;35423;37.320;-121.762;2022-08-21T00:00:29;99183.19;;;53.90;3.91
49529;BME280;35423;37.320;-121.762;2022-08-21T00:02:58;99182.31;;;53.72;3.91
49529;BME280;35423;37.320;-121.762;2022-08-21T00:05:23;99187.32;;;53.14;4.01
49529;BME280;35423;37.320;-121.762;2022-08-21T00:07:50;99188.29;;;53.24;4.08
49529;BME280;35423;37.320;-121.762;2022-08-21T00:10:18;99188.74;;;53.00;4.25
49529;BME280;35423;37.320;-121.762;2022-08-21T00:12:43;99188.65;;;52.85;4.40
49529;BME280;35423;37.320;-121.762;2022-08-21T00:15:10;99189.37;;;52.29;4.52
49529;BME280;35423;37.320;-121.762;2022-08-21T00:17:34;99193.40;;;52.29;4.70
49529;BME280;35423;37.320;-121.762;2022-08-21T00:20:00;99190.09;;;51.83;4.82
49529;BME280;35423;37.320;-121.762;2022-08-21T00:22:26;99193.17;;;51.66;5.09
49529;BME280;35423;37.320;-121.762;2022-08-21T00:24:54;99193.02;;;51.21;5.18
49529;BME280;35423;37.320;-121.762;2022-08-21T00:27:20;99188.68;;;51.05;5.30
49529;BME280;35423;37.320;-121.762;2022-08-21T00:29:47;99191.23;;;51.41;5.40
49529;BME280;35423;37.320;-121.762;2022-08-21T00:32:20;99194.42;;;51.01;5.40
49529;BME280;35423;37.320;-121.762;2022-08-21T00:34:40;99190.05;;;51.07;5.60
49529;BME280;35423;37.320;-121.762;2022-08-21T00:37:05;99189.52;;;50.34;5.87
49529;BME280;35423;37.320;-121.762;2022-08-21T00:39:31;99194.05;;;50.45;5.87
49529;BME280;35423;37.320;-121.762;2022-08-21T00:41:57;99192.99;;;49.83;6.02
49529;BME280;35423;37.320;-121.762;2022-08-21T00:44:24;99196.79;;;49.93;6.20
49529;BME280;35423;37.320;-121.762;2022-08-21T00:46:58;99196.79;;;49.33;6.33
49529;BME280;35423;37.320;-121.762;2022-08-21T00:49:24;99200.73;;;49.02;6.44
49529;BME280;35423;37.320;-121.762;2022-08-21T00:51:51;99202.64;;;49.21;6.48
49529;BME280;35423;37.320;-121.762;2022-08-21T00:54:17;99203.06;;;48.95;6.50
49529;BME280;35423;37.320;-121.762;2022-08-21T00:56:43;99202.66;;;48.68;6.59
49529;BME280;35423;37.320;-121.762;2022-08-21T00:59:11;99201.87;;;48.43;6.62
49529;BME280;35423;37.320;-121.762;2022-08-21T01:01:38;99203.89;;;48.27;6.71
49529;BME280;35423;37.320;-121.762;2022-08-21T01:04:05;99202.04;;;47.93;6.78
49529;BME280;35423;37.320;-121.762;2022-08-21T01:06:32;99202.98;;;47.78;6.86
49529;BME280;35423;37.320;-121.762;2022-08-21T01:08:59;99201.86;;;47.24;6.84
49529;BME280;35423;37.320;-121.762;2022-08-21T01:11:24;99200.55;;;47.45;7.02
49529;BME280;35423;37.320;-121.762;2022-08-21T01:13:52;99207.43;;;47.29;7.16
49529;BME280;35423;37.320;-121.762;2022-08-21T01:16:20;99206.64;;;47.09;7.40
49529;BME280;35423;37.320;-121.762;2022-08-21T01:18:46;99207.50;;;46.94;7.52
49529;BME280;35423;37.320;-121.762;2022-08-21T01:21:16;99206.40;;;46.33;7.59
49529;BME280;35423;37.320;-121.762;2022-08-21T01:23:44;99208.75;;;46.64;7.68
49529;BME280;35423;37.320;-121.762;2022-08-21T01:26:09;99212.23;;;46.08;7.81
49529;BME280;35423;37.320;-121.762;2022-08-21T01:28:38;99215.19;;;46.17;7.90
49529;BME280;35423;37.320;-121.762;2022-08-21T01:31:02;99218.96;;;46.26;8.01
49529;BME280;35423;37.320;-121.762;2022-08-21T01:33:26;99220.88;;;45.99;8.33
49529;BME280;35423;37.320;-121.762;2022-08-21T01:35:52;99224.91;;;45.97;8.53
49529;BME280;35423;37.320;-121.762;2022-08-21T01:38:17;99230.32;;;45.43;8.75
49529;BME280;35423;37.320;-121.762;2022-08-21T01:40:44;99235.94;;;45.32;8.95
49529;BME280;35423;37.320;-121.762;2022-08-21T01:43:10;99235.26;;;45.08;9.15
49529;BME280;35423;37.320;-121.762;2022-08-21T01:45:36;99238.75;;;45.08;9.33
49529;BME280;35423;37.320;-121.762;2022-08-21T01:48:04;99245.35;;;44.80;9.50
49529;BME280;35423;37.320;-121.762;2022-08-21T01:50:32;99244.85;;;44.28;9.58
49529;BME280;35423;37.320;-121.762;2022-08-21T01:53:00;99248.84;;;44.38;9.68
49529;BME280;35423;37.320;-121.762;2022-08-21T01:55:25;99250.13;;;44.08;9.83
49529;BME280;35423;37.320;-121.762;2022-08-21T01:57:52;99251.50;;;43.76;10.08
49529;BME280;35423;37.320;-121.762;2022-08-21T02:00:21;99253.10;;;43.26;10.32
49529;BME280;35423;37.320;-121.762;2022-08-21T02:02:48;99249.92;;;43.89;10.51
49529;BME280;35423;37.320;-121.762;2022-08-21T02:05:13;99253.45;;;43.05;10.72
49529;BME280;35423;37.320;-121.762;2022-08-21T02:07:49;99253.70;;;43.13;10.89
49529;BME280;35423;37.320;-121.762;2022-08-21T02:10:09;99256.73;;;42.95;11.01
49529;BME280;35423;37.320;-121.762;2022-08-21T02:12:34;99259.29;;;42.46;11.10
49529;BME280;35423;37.320;-121.762;2022-08-21T02:14:59;99260.24;;;42.21;11.13
49529;BME280;35423;37.320;-121.762;2022-08-21T02:17:24;99266.73;;;42.10;11.32
49529;BME280;35423;37.320;-121.762;2022-08-21T02:19:51;99268.92;;;41.96;11.32
49529;BME280;35423;37.320;-121.762;2022-08-21T02:22:18;99267.06;;;42.02;11.40
49529;BME280;35423;37.320;-121.762;2022-08-21T02:24:43;99269.36;;;41.81;11.50
49529;BME280;35423;37.320;-121.762;2022-08-21T02:27:10;99269.25;;;41.66;11.55
49529;BME280;35423;37.320;-121.762;2022-08-21T02:29:38;99271.89;;;41.18;11.71
49529;BME280;35423;37.320;-121.762;2022-08-21T02:32:04;99278.05;;;40.92;11.86
49529;BME280;35423;37.320;-121.762;2022-08-21T02:34:28;99278.94;;;40.88;11.96
49529;BME280;35423;37.320;-121.762;2022-08-21T02:37:01;99282.36;;;40.68;12.08
49529;BME280;35423;37.320;-121.762;2022-08-21T02:39:28;99283.96;;;40.79;12.13
49529;BME280;35423;37.320;-121.762;2022-08-21T02:41:54;99288.10;;;40.91;12.21
49529;BME280;35423;37.320;-121.762;2022-08-21T02:44:21;99289.56;;;40.08;12.36
49529;BME280;35423;37.320;-121.762;2022-08-21T02:46:47;99292.05;;;40.38;12.48
49529;BME280;35423;37.320;-121.762;2022-08-21T02:49:17;99294.39;;;40.16;12.59
49529;BME280;35423;37.320;-121.762;2022-08-21T02:51:44;99295.22;;;39.96;12.75
49529;BME280;35423;37.320;-121.762;2022-08-21T02:54:12;99294.20;;;39.72;12.86
49529;BME280;35423;37.320;-121.762;2022-08-21T02:56:38;99299.21;;;39.65;12.90
49529;BME280;35423;37.320;-121.762;2022-08-21T02:59:03;99299.53;;;39.12;13.05
49529;BME280;35423;37.320;-121.762;2022-08-21T03:01:31;99302.79;;;39.70;13.13
49529;BME280;35423;37.320;-121.762;2022-08-21T03:03:58;99302.70;;;39.49;13.29
49529;BME280;35423;37.320;-121.762;2022-08-21T03:06:27;99303.26;;;38.73;13.46
49529;BME280;35423;37.320;-121.762;2022-08-21T03:08:55;99302.45;;;39.02;13.60
49529;BME280;35423;37.320;-121.762;2022-08-21T03:11:22;99309.22;;;38.85;13.63
49529;BME280;35423;37.320;-121.762;2022-08-21T03:13:48;99311.93;;;38.83;13.69
49529;BME280;35423;37.320;-121.762;2022-08-21T03:16:14;99314.87;;;38.68;13.72
49529;BME280;35423;37.320;-121.762;2022-08-21T03:18:41;99318.59;;;38.39;13.84
49529;BME280;35423;37.320;-121.762;2022-08-21T03:21:07;99322.21;;;38.09;13.95
49529;BME280;35423;37.320;-121.762;2022-08-21T03:23:35;99325.22;;;37.89;14.03
49529;BME280;35423;37.320;-121.762;2022-08-21T03:26:01;99324.86;;;37.73;14.10
49529;BME280;35423;37.320;-121.762;2022-08-21T03:28:26;99329.69;;;37.78;14.20
49529;BME280;35423;37.320;-121.762;2022-08-21T03:30:58;99330.30;;;37.85;14.31
49529;BME280;35423;37.320;-121.762;2022-08-21T03:33:24;99332.14;;;37.30;14.37
49529;BME280;35423;37.320;-121.762;2022-08-21T03:35:58;99334.80;;;37.58;14.45
49529;BME280;35423;37.320;-121.762;2022-08-21T03:38:18;99342.48;;;37.49;14.48
49529;BME280;35423;37.320;-121.762;2022-08-21T03:40:44;99349.10;;;37.72;14.49
49529;BME280;35423;37.320;-121.762;2022-08-21T03:43:12;99350.91;;;37.22;14.62
49529;BME280;35423;37.320;-121.762;2022-08-21T03:45:39;99352.87;;;37.12;14.69
49529;BME280;35423;37.320;-121.762;2022-08-21T03:48:05;99356.17;;;37.04;14.76
49529;BME280;35423;37.320;-121.762;2022-08-21T03:50:32;99360.75;;;37.21;14.83
49529;BME280;35423;37.320;-121.762;2022-08-21T03:52:57;99365.21;;;37.29;14.93
49529;BME280;35423;37.320;-121.762;2022-08-21T03:55:25;99369.28;;;36.64;15.04
49529;BME280;35423;37.320;-121.762;2022-08-21T03:57:49;99372.86;;;37.02;15.07
49529;BME280;35423;37.320;-121.762;2022-08-21T04:00:17;99381.13;;;36.57;15.17
49529;BME280;35423;37.320;-121.762;2022-08-21T04:02:43;99385.01;;;36.75;15.38
49529;BME280;35423;37.320;-121.762;2022-08-21T04:05:11;99391.27;;;36.23;15.51
49529;BME280;35423;37.320;-121.762;2022-08-21T04:07:36;99394.56;;;36.41;15.20
49529;BME280;35423;37.320;-121.762;2022-08-21T04:10:03;99397.98;;;35.77;14.96
49529;BME280;35423;37.320;-121.762;2022-08-21T04:12:29;99401.43;;;35.99;14.95
49529;BME280;35423;37.320;-121.762;2022-08-21T04:14:55;99404.85;;;35.80;14.94
49529;BME280;35423;37.320;-121.762;2022-08-21T04:17:22;99409.04;;;35.80;15.07
49529;BME280;35423;37.320;-121.762;2022-08-21T04:19:48;99414.13;;;35.34;15.29
49529;BME280;35423;37.320;-121.762;2022-08-21T04:22:14;99417.04;;;35.80;15.40
49529;BME280;35423;37.320;-121.762;2022-08-21T04:24:38;99422.08;;;35.60;15.59
49529;BME280;35423;37.320;-121.762;2022-08-21T04:27:05;99427.80;;;35.04;15.82
49529;BME280;35423;37.320;-121.762;2022-08-21T04:29:34;99431.79;;;35.06;16.18
49529;BME280;35423;37.320;-121.762;2022-08-21T04:32:00;99431.04;;;34.93;16.57
49529;BME280;35423;37.320;-121.762;2022-08-21T04:34:27;99434.64;;;34.76;17.01
49529;BME280;35423;37.320;-121.762;2022-08-21T04:36:56;99435.71;;;34.84;17.36
49529;BME280;35423;37.320;-121.762;2022-08-21T04:39:21;99438.09;;;34.75;17.63
49529;BME280;35423;37.320;-121.762;2022-08-21T04:41:46;99440.16;;;34.37;17.68
49529;BME280;35423;37.320;-121.762;2022-08-21T04:44:11;99440.06;;;34.43;17.81
49529;BME280;35423;37.320;-121.762;2022-08-21T04:46:37;99444.87;;;34.11;17.96
49529;BME280;35423;37.320;-121.762;2022-08-21T04:49:11;99447.00;;;33.91;18.19
49529;BME280;35423;37.320;-121.762;2022-08-21T04:51:41;99453.22;;;34.28;18.38
49529;BME280;35423;37.320;-121.762;2022-08-21T04:54:10;99453.49;;;34.18;18.54
49529;BME280;35423;37.320;-121.762;2022-08-21T04:56:44;99458.08;;;34.13;18.69
49529;BME280;35423;37.320;-121.762;2022-08-21T04:59:01;99462.20;;;33.81;18.83
49529;BME280;35423;37.320;-121.762;2022-08-21T05:01:27;99463.29;;;33.70;18.92
49529;BME280;35423;37.320;-121.762;2022-08-21T05:03:52;99465.48;;;33.63;19.05
49529;BME280;35423;37.320;-121.762;2022-08-21T05:06:17;99466.89;;;33.55;19.20
49529;BME280;35423;37.320;-121.762;2022-08-21T05:08:42;99464.77;;;33.61;19.27
49529;BME280;35423;37.320;-121.762;2022-08-21T05:11:08;99468.54;;;33.22;19.46
49529;BME280;35423;37.320;-121.762;2022-08-21T05:13:36;99471.63;;;33.23;19.56
49529;BME280;35423;37.320;-121.762;2022-08-21T05:16:02;99474.44;;;32.78;19.59
49529;BME280;35423;37.320;-121.762;2022-08-21T05:18:28;99475.85;;;32.99;19.78
49529;BME280;35423;37.320;-121.762;2022-08-21T05:20:55;99479.55;;;32.74;19.98
49529;BME280;35423;37.320;-121.762;2022-08-21T05:23:21;99481.24;;;32.77;20.18
49529;BME280;35423;37.320;-121.762;2022-08-21T05:25:49;99482.92;;;32.49;20.40
49529;BME280;35423;37.320;-121.762;2022-08-21T05:28:15;99487.13;;;32.24;20.59
49529;BME280;35423;37.320;-121.762;2022-08-21T05:30:42;99488.30;;;32.05;20.76
49529;BME280;35423;37.320;-121.762;2022-08-21T05:33:08;99492.21;;;31.98;20.89
49529;BME280;35423;37.320;-121.762;2022-08-21T05:35:34;99496.83;;;31.81;21.01
49529;BME280;35423;37.320;-121.762;2022-08-21T05:38:00;99497.15;;;31.78;21.04
49529;BME280;35423;37.320;-121.762;2022-08-21T05:40:27;99500.46;;;32.18;21.18
49529;BME280;35423;37.320;-121.762;2022-08-21T05:42:59;99500.78;;;31.74;20.84
49529;BME280;35423;37.320;-121.762;2022-08-21T05:45:27;99502.89;;;32.15;20.80
49529;BME280;35423;37.320;-121.762;2022-08-21T05:47:51;99500.85;;;31.89;21.00
49529;BME280;35423;37.320;-121.762;2022-08-21T05:50:18;99498.11;;;31.83;21.15
49529;BME280;35423;37.320;-121.762;2022-08-21T05:52:43;99498.37;;;31.72;21.37
49529;BME280;35423;37.320;-121.762;2022-08-21T05:55:10;99499.32;;;31.37;21.49
49529;BME280;35423;37.320;-121.762;2022-08-21T05:57:36;99500.83;;;31.79;21.52
49529;BME280;35423;37.320;-121.762;2022-08-21T06:00:03;99502.93;;;31.54;21.47
49529;BME280;35423;37.320;-121.762;2022-08-21T06:02:28;99504.79;;;31.36;21.23
49529;BME280;35423;37.320;-121.762;2022-08-21T06:04:57;99505.39;;;31.52;20.67
49529;BME280;35423;37.320;-121.762;2022-08-21T06:07:21;99505.41;;;31.18;20.26
49529;BME280;35423;37.320;-121.762;2022-08-21T06:09:51;99506.93;;;31.28;20.08
49529;BME280;35423;37.320;-121.762;2022-08-21T06:12:19;99505.73;;;31.32;19.97
49529;BME280;35423;37.320;-121.762;2022-08-21T06:14:45;99508.88;;;31.06;20.01
49529;BME280;35423;37.320;-121.762;2022-08-21T06:17:12;99511.29;;;30.71;20.02
49529;BME280;35423;37.320;-121.762;2022-08-21T06:19:37;99510.74;;;30.78;20.12
49529;BME280;35423;37.320;-121.762;2022-08-21T06:22:04;99511.89;;;30.38;20.22
49529;BME280;35423;37.320;-121.762;2022-08-21T06:24:29;99512.15;;;30.71;20.29
49529;BME280;35423;37.320;-121.762;2022-08-21T06:26:57;99516.09;;;30.19;20.17
49529;BME280;35423;37.320;-121.762;2022-08-21T06:29:25;99520.34;;;30.33;20.17
49529;BME280;35423;37.320;-121.762;2022-08-21T06:31:52;99523.42;;;30.50;20.16
49529;BME280;35423;37.320;-121.762;2022-08-21T06:34:21;99527.26;;;30.20;20.11
49529;BME280;35423;37.320;-121.762;2022-08-21T06:36:48;99528.37;;;30.35;20.15
49529;BME280;35423;37.320;-121.762;2022-08-21T06:39:14;99530.96;;;30.19;19.97
49529;BME280;35423;37.320;-121.762;2022-08-21T06:41:41;99535.31;;;30.52;20.00
49529;BME280;35423;37.320;-121.762;2022-08-21T06:44:06;99540.35;;;30.32;19.89
49529;BME280;35423;37.320;-121.762;2022-08-21T06:46:34;99542.49;;;30.13;19.96
49529;BME280;35423;37.320;-121.762;2022-08-21T06:49:03;99544.83;;;30.16;19.91
49529;BME280;35423;37.320;-121.762;2022-08-21T06:51:32;99544.95;;;30.01;19.94
49529;BME280;35423;37.320;-121.762;2022-08-21T06:53:57;99545.26;;;29.64;20.07
49529;BME280;35423;37.320;-121.762;2022-08-21T06:56:24;99544.25;;;29.71;20.37
49529;BME280;35423;37.320;-121.762;2022-08-21T06:58:50;99548.04;;;29.83;20.60
49529;BME280;35423;37.320;-121.762;2022-08-21T07:01:18;99549.96;;;28.21;20.63
49529;BME280;35423;37.320;-121.762;2022-08-21T07:03:45;99550.65;;;30.34;20.50
49529;BME280;35423;37.320;-121.762;2022-08-21T07:06:13;99552.40;;;29.94;20.62
49529;BME280;35423;37.320;-121.762;2022-08-21T07:08:40;99557.22;;;29.91;20.64
49529;BME280;35423;37.320;-121.762;2022-08-21T07:11:11;99560.44;;;29.50;20.75
49529;BME280;35423;37.320;-121.762;2022-08-21T07:13:34;99562.95;;;29.50;20.87
49529;BME280;35423;37.320;-121.762;2022-08-21T07:15:59;99566.10;;;29.19;20.95
49529;BME280;35423;37.320;-121.762;2022-08-21T07:18:25;99563.69;;;29.47;21.01
49529;BME280;35423;37.320;-121.762;2022-08-21T07:20:55;99561.86;;;29.11;21.06
49529;BME280;35423;37.320;-121.762;2022-08-21T07:23:26;99562.69;;;29.26;21.14
49529;BME280;35423;37.320;-121.762;2022-08-21T07:25:50;99566.39;;;29.32;21.04
49529;BME280;35423;37.320;-121.762;2022-08-21T07:28:15;99565.64;;;29.23;21.08
49529;BME280;35423;37.320;-121.762;2022-08-21T07:30:41;99568.83;;;29.13;21.17
49529;BME280;35423;37.320;-121.762;2022-08-21T07:33:06;99572.83;;;29.17;21.35
49529;BME280;35423;37.320;-121.762;2022-08-21T07:35:33;99572.09;;;28.83;21.46
49529;BME280;35423;37.320;-121.762;2022-08-21T07:37:59;99568.02;;;28.32;21.64
49529;BME280;35423;37.320;-121.762;2022-08-21T07:40:30;99569.83;;;28.56;21.66
49529;BME280;35423;37.320;-121.762;2022-08-21T07:42:57;99571.98;;;28.88;21.76
49529;BME280;35423;37.320;-121.762;2022-08-21T07:45:25;99576.83;;;28.35;21.89
49529;BME280;35423;37.320;-121.762;2022-08-21T07:47:52;99576.35;;;28.28;22.03
49529;BME280;35423;37.320;-121.762;2022-08-21T07:50:16;99578.29;;;28.61;22.20
49529;BME280;35423;37.320;-121.762;2022-08-21T07:52:42;99577.07;;;28.56;22.32
49529;BME280;35423;37.320;-121.762;2022-08-21T07:55:11;99575.95;;;28.45;22.37
49529;BME280;35423;37.320;-121.762;2022-08-21T07:57:34;99575.15;;;28.12;22.36
49529;BME280;35423;37.320;-121.762;2022-08-21T07:59:59;99576.04;;;28.08;22.45
49529;BME280;35423;37.320;-121.762;2022-08-21T08:02:29;99574.77;;;28.27;22.44
49529;BME280;35423;37.320;-121.762;2022-08-21T08:04:59;99577.11;;;27.39;22.58
49529;BME280;35423;37.320;-121.762;2022-08-21T08:07:23;99577.35;;;28.14;22.61
49529;BME280;35423;37.320;-121.762;2022-08-21T08:09:51;99575.07;;;28.21;22.77
49529;BME280;35423;37.320;-121.762;2022-08-21T08:12:20;99574.02;;;27.84;22.91
49529;BME280;35423;37.320;-121.762;2022-08-21T08:14:47;99573.75;;;27.77;23.04
49529;BME280;35423;37.320;-121.762;2022-08-21T08:17:13;99576.14;;;27.72;23.14
49529;BME280;35423;37.320;-121.762;2022-08-21T08:19:41;99575.90;;;27.93;23.27
49529;BME280;35423;37.320;-121.762;2022-08-21T08:22:13;99576.28;;;27.56;23.40
49529;BME280;35423;37.320;-121.762;2022-08-21T08:24:39;99576.72;;;27.79;23.49
49529;BME280;35423;37.320;-121.762;2022-08-21T08:27:02;99577.98;;;27.37;23.62
49529;BME280;35423;37.320;-121.762;2022-08-21T08:29:27;99579.28;;;27.23;23.74
49529;BME280;35423;37.320;-121.762;2022-08-21T08:31:55;99578.74;;;27.51;23.76
49529;BME280;35423;37.320;-121.762;2022-08-21T08:34:23;99577.26;;;27.47;23.85
49529;BME280;35423;37.320;-121.762;2022-08-21T08:36:48;99574.09;;;27.58;23.98
49529;BME280;35423;37.320;-121.762;2022-08-21T08:39:15;99571.79;;;27.57;23.57
49529;BME280;35423;37.320;-121.762;2022-08-21T08:41:42;99573.49;;;27.74;23.76
49529;BME280;35423;37.320;-121.762;2022-08-21T08:44:06;99571.22;;;27.47;23.94
49529;BME280;35423;37.320;-121.762;2022-08-21T08:46:36;99569.84;;;27.33;24.07
49529;BME280;35423;37.320;-121.762;2022-08-21T08:49:02;99572.75;;;26.77;24.19
49529;BME280;35423;37.320;-121.762;2022-08-21T08:51:29;99573.27;;;27.12;24.33
49529;BME280;35423;37.320;-121.762;2022-08-21T08:53:54;99572.44;;;27.03;24.50
49529;BME280;35423;37.320;-121.762;2022-08-21T08:56:31;99575.18;;;26.82;24.57
49529;BME280;35423;37.320;-121.762;2022-08-21T08:58:45;99573.56;;;26.70;24.64
49529;BME280;35423;37.320;-121.762;2022-08-21T09:01:17;99575.88;;;26.48;24.79
49529;BME280;35423;37.320;-121.762;2022-08-21T09:03:37;99576.73;;;26.31;24.91
49529;BME280;35423;37.320;-121.762;2022-08-21T09:06:07;99580.53;;;26.14;25.08
49529;BME280;35423;37.320;-121.762;2022-08-21T09:08:41;99580.16;;;26.02;25.13
49529;BME280;35423;37.320;-121.762;2022-08-21T09:11:02;99581.20;;;26.13;25.20
49529;BME280;35423;37.320;-121.762;2022-08-21T09:13:26;99579.03;;;26.25;25.37
49529;BME280;35423;37.320;-121.762;2022-08-21T09:15:53;99581.78;;;26.27;25.34
49529;BME280;35423;37.320;-121.762;2022-08-21T09:18:24;99582.00;;;26.14;25.45
49529;BME280;35423;37.320;-121.762;2022-08-21T09:20:44;99582.58;;;25.66;25.40
49529;BME280;35423;37.320;-121.762;2022-08-21T09:23:16;99583.31;;;26.09;25.30
49529;BME280;35423;37.320;-121.762;2022-08-21T09:25:34;99583.87;;;25.97;25.37
49529;BME280;35423;37.320;-121.762;2022-08-21T09:27:57;99583.32;;;25.44;25.39
49529;BME280;35423;37.320;-121.762;2022-08-21T09:30:28;99586.83;;;25.89;25.56
49529;BME280;35423;37.320;-121.762;2022-08-21T09:32:51;99584.52;;;25.83;25.53
49529;BME280;35423;37.320;-121.762;2022-08-21T09:35:21;99586.43;;;25.78;25.51
49529;BME280;35423;37.320;-121.762;2022-08-21T09:37:50;99587.48;;;25.68;25.52
49529;BME280;35423;37.320;-121.762;2022-08-21T09:40:17;99585.98;;;25.61;25.52
49529;BME280;35423;37.320;-121.762;2022-08-21T09:42:38;99586.24;;;25.58;25.56
49529;BME280;35423;37.320;-121.762;2022-08-21T09:45:11;99585.62;;;25.30;25.56
49529;BME280;35423;37.320;-121.762;2022-08-21T09:47:29;99587.97;;;25.71;25.41
49529;BME280;35423;37.320;-121.762;2022-08-21T09:49:56;99587.33;;;24.94;25.58
49529;BME280;35423;37.320;-121.762;2022-08-21T09:52:25;99589.33;;;25.56;25.67
49529;BME280;35423;37.320;-121.762;2022-08-21T09:54:52;99592.86;;;25.14;25.83
49529;BME280;35423;37.320;-121.762;2022-08-21T09:57:22;99596.30;;;25.03;25.91
49529;BME280;35423;37.320;-121.762;2022-08-21T09:59:46;99593.16;;;25.10;26.09
49529;BME280;35423;37.320;-121.762;2022-08-21T10:02:27;99593.99;;;24.88;26.30
49529;BME280;35423;37.320;-121.762;2022-08-21T10:04:49;99596.64;;;24.95;26.52
49529;BME280;35423;37.320;-121.762;2022-08-21T10:07:13;99600.19;;;24.87;26.52
49529;BME280;35423;37.320;-121.762;2022-08-21T10:09:39;99604.62;;;24.82;26.62
49529;BME280;35423;37.320;-121.762;2022-08-21T10:12:16;99604.36;;;24.75;26.62
49529;BME280;35423;37.320;-121.762;2022-08-21T10:14:48;99603.64;;;24.56;26.70
49529;BME280;35423;37.320;-121.762;2022-08-21T10:17:14;99604.51;;;24.69;26.80
49529;BME280;35423;37.320;-121.762;2022-08-21T10:19:38;99606.06;;;24.50;26.97
49529;BME280;35423;37.320;-121.762;2022-08-21T10:22:07;99603.33;;;24.46;27.14
49529;BME280;35423;37.320;-121.762;2022-08-21T10:24:31;99603.59;;;24.42;27.20
49529;BME280;35423;37.320;-121.762;2022-08-21T10:26:57;99609.08;;;24.33;27.33
49529;BME280;35423;37.320;-121.762;2022-08-21T10:31:50;99615.04;;;24.37;27.34
49529;BME280;35423;37.320;-121.762;2022-08-21T10:34:25;99618.15;;;23.93;27.28
49529;BME280;35423;37.320;-121.762;2022-08-21T10:36:39;99622.36;;;24.38;27.25
49529;BME280;35423;37.320;-121.762;2022-08-21T10:39:15;99624.54;;;24.12;27.20
49529;BME280;35423;37.320;-121.762;2022-08-21T10:41:45;99625.30;;;24.27;27.30
49529;BME280;35423;37.320;-121.762;2022-08-21T10:44:08;99626.15;;;24.15;27.35
49529;BME280;35423;37.320;-121.762;2022-08-21T10:46:36;99624.25;;;24.07;27.48
49529;BME280;35423;37.320;-121.762;2022-08-21T10:48:57;99624.84;;;24.09;27.71
49529;BME280;35423;37.320;-121.762;2022-08-21T10:51:25;99624.66;;;23.84;27.88
49529;BME280;35423;37.320;-121.762;2022-08-21T10:53:49;99624.61;;;24.20;27.99
49529;BME280;35423;37.320;-121.762;2022-08-21T10:56:13;99627.00;;;23.67;27.94
49529;BME280;35423;37.320;-121.762;2022-08-21T10:58:38;99625.84;;;23.99;27.94
49529;BME280;35423;37.320;-121.762;2022-08-21T11:01:03;99626.80;;;23.63;27.91
49529;BME280;35423;37.320;-121.762;2022-08-21T11:03:28;99627.99;;;23.99;28.05
49529;BME280;35423;37.320;-121.762;2022-08-21T11:05:54;99626.05;;;23.91;28.02
49529;BME280;35423;37.320;-121.762;2022-08-21T11:08:23;99628.42;;;23.81;28.10
49529;BME280;35423;37.320;-121.762;2022-08-21T11:10:48;99629.16;;;23.51;28.14
49529;BME280;35423;37.320;-121.762;2022-08-21T11:13:17;99627.81;;;23.63;28.20
49529;BME280;35423;37.320;-121.762;2022-08-21T11:15:41;99627.97;;;23.33;28.30
49529;BME280;35423;37.320;-121.762;2022-08-21T11:18:15;99628.67;;;23.23;28.45
49529;BME280;35423;37.320;-121.762;2022-08-21T11:20:33;99632.81;;;23.38;28.51
49529;BME280;35423;37.320;-121.762;2022-08-21T11:23:03;99631.42;;;23.08;28.61
49529;BME280;35423;37.320;-121.762;2022-08-21T11:25:26;99631.12;;;23.15;28.83
49529;BME280;35423;37.320;-121.762;2022-08-21T11:27:52;99636.81;;;23.26;28.99
49529;BME280;35423;37.320;-121.762;2022-08-21T11:30:14;99638.91;;;22.85;29.09
49529;BME280;35423;37.320;-121.762;2022-08-21T11:32:53;99640.26;;;22.73;29.14
49529;BME280;35423;37.320;-121.762;2022-08-21T11:35:13;99641.11;;;22.61;29.27
49529;BME280;35423;37.320;-121.762;2022-08-21T11:37:45;99643.06;;;22.87;29.30
49529;BME280;35423;37.320;-121.762;2022-08-21T11:40:04;99644.25;;;22.96;29.33
49529;BME280;35423;37.320;-121.762;2022-08-21T11:42:33;99648.85;;;23.12;29.32
49529;BME280;35423;37.320;-121.762;2022-08-21T11:45:03;99648.53;;;22.65;29.29
49529;BME280;35423;37.320;-121.762;2022-08-21T11:47:28;99651.83;;;22.85;29.30
49529;BME280;35423;37.320;-121.762;2022-08-21T11:50:00;99654.30;;;22.99;29.47
49529;BME280;35423;37.320;-121.762;2022-08-21T11:52:18;99655.52;;;22.77;29.55
49529;BME280;35423;37.320;-121.762;2022-08-21T11:54:42;99657.61;;;22.97;29.67
49529;BME280;35423;37.320;-121.762;2022-08-21T11:57:07;99658.54;;;22.71;29.70
49529;BME280;35423;37.320;-121.762;2022-08-21T11:59:39;99662.64;;;22.87;29.72
49529;BME280;35423;37.320;-121.762;2022-08-21T12:02:00;99662.49;;;22.34;29.71
49529;BME280;35423;37.320;-121.762;2022-08-21T12:04:29;99664.14;;;22.59;29.83
49529;BME280;35423;37.320;-121.762;2022-08-21T12:06:52;99663.14;;;22.50;29.87
49529;BME280;35423;37.320;-121.762;2022-08-21T12:11:48;99658.97;;;22.68;30.07
49529;BME280;35423;37.320;-121.762;2022-08-21T12:14:15;99664.96;;;22.61;30.11
49529;BME280;35423;37.320;-121.762;2022-08-21T12:16:39;99669.23;;;22.38;30.17
49529;BME280;35423;37.320;-121.762;2022-08-21T12:19:06;99671.87;;;22.46;30.04
49529;BME280;35423;37.320;-121.762;2022-08-21T12:21:31;99677.33;;;22.88;29.92
49529;BME280;35423;37.320;-121.762;2022-08-21T12:24:04;99680.62;;;22.33;29.73
49529;BME280;35423;37.320;-121.762;2022-08-21T12:26:28;99682.73;;;22.45;29.70
49529;BME280;35423;37.320;-121.762;2022-08-21T12:31:24;99689.68;;;22.28;29.85
49529;BME280;35423;37.320;-121.762;2022-08-21T12:33:52;99692.21;;;22.21;29.91